Time;durP1;ratioP1;P1;durP2;ratioP2;P2;SDS_P1;SDS_P2;PMS_P1;PMS_P2;Temp;Humidity;BMP_temperature;BMP_pressure;BME280_temperature;BME280_humidity;BME280_pressure;Samples;Min_cycle;Max_cycle;Signal;HPM_P1;HPM_P2
2021/12/18 00:00:07;;;;;;;10.98;7.72;;;;;;;7.06;79.60;103241.91;4133234;28;20042;-61
2021/12/18 00:02:17;;;;;;;14.50;8.93;;;;;;;7.12;79.39;103254.38;4155997;28;20045;-62
2021/12/18 00:04:20;;;;;;;12.98;8.13;;;;;;;7.20;79.25;103245.50;4159243;28;20046;-62
2021/12/18 00:06:25;;;;;;;11.10;7.57;;;;;;;7.28;79.45;103241.78;4156500;28;20038;-61
2021/12/18 00:08:28;;;;;;;13.32;7.50;;;;;;;7.30;79.08;103239.28;4154410;28;20049;-61
2021/12/18 00:10:32;;;;;;;15.32;9.15;;;;;;;7.26;79.17;103238.19;4156650;28;20076;-61
2021/12/18 00:12:37;;;;;;;14.23;8.43;;;;;;;7.27;79.31;103242.59;4153355;28;20068;-62
2021/12/18 00:14:41;;;;;;;12.35;7.70;;;;;;;7.31;78.84;103241.09;4152254;28;20052;-61
2021/12/18 00:16:44;;;;;;;12.05;7.65;;;;;;;7.37;79.17;103241.53;4155087;28;20540;-59
2021/12/18 00:18:50;;;;;;;12.68;8.10;;;;;;;7.44;78.74;103232.53;4161946;28;20160;-60
2021/12/18 00:20:53;;;;;;;16.67;9.00;;;;;;;7.45;78.35;103234.34;4146583;28;20050;-62
2021/12/18 00:22:56;;;;;;;15.18;8.98;;;;;;;7.42;78.70;103236.72;4146484;28;20042;-62
2021/12/18 00:24:59;;;;;;;15.07;7.78;;;;;;;7.42;78.95;103237.59;4129675;28;20050;-60
2021/12/18 00:27:03;;;;;;;14.90;8.40;;;;;;;7.45;79.01;103242.13;4152378;28;20529;-61
2021/12/18 00:29:07;;;;;;;13.27;8.30;;;;;;;7.47;78.57;103237.94;4144894;28;20490;-61
2021/12/18 00:31:10;;;;;;;14.57;9.15;;;;;;;7.44;78.62;103232.53;4147654;28;20049;-61
2021/12/18 00:33:14;;;;;;;13.85;8.70;;;;;;;7.41;78.88;103232.31;4147176;28;20064;-62
2021/12/18 00:35:18;;;;;;;14.52;9.13;;;;;;;7.41;79.14;103227.16;4152874;28;20521;-62
2021/12/18 00:37:21;;;;;;;15.77;8.65;;;;;;;7.42;78.70;103240.19;4156285;28;20415;-61
2021/12/18 00:39:24;;;;;;;13.27;8.68;;;;;;;7.42;78.71;103241.91;4160954;28;20045;-61
2021/12/18 00:41:36;;;;;;;17.40;10.20;;;;;;;7.39;79.23;103233.88;4166173;28;20095;-60
2021/12/18 00:44:01;;;;;;;16.35;9.55;;;;;;;7.40;78.75;103236.56;4140331;28;20101;-58
2021/12/18 00:46:05;;;;;;;14.43;9.18;;;;;;;7.34;79.19;103234.47;4153396;28;20260;-61
2021/12/18 00:48:08;;;;;;;13.07;9.27;;;;;;;7.32;79.12;103224.78;4156028;28;20041;-61
2021/12/18 00:50:15;;;;;;;14.32;9.45;;;;;;;7.38;79.41;103232.09;4165321;28;20038;-60
2021/12/18 00:52:18;;;;;;;16.20;11.05;;;;;;;7.38;79.32;103226.94;4159326;28;20557;-62
2021/12/18 00:54:21;;;;;;;15.98;9.57;;;;;;;7.40;79.04;103230.50;4164051;28;20049;-62
2021/12/18 00:56:25;;;;;;;16.40;10.52;;;;;;;7.38;78.97;103227.81;4149804;28;20041;-61
2021/12/18 00:58:28;;;;;;;14.25;9.85;;;;;;;7.38;79.05;103226.94;4164900;28;20120;-63
2021/12/18 01:00:32;;;;;;;14.40;9.00;;;;;;;7.33;79.58;103230.06;4149138;28;20050;-61
2021/12/18 01:02:41;;;;;;;16.50;10.48;;;;;;;7.31;79.50;103231.63;4158214;28;20037;-61
2021/12/18 01:04:44;;;;;;;14.43;9.50;;;;;;;7.31;79.38;103226.47;4160040;28;20406;-61
2021/12/18 01:06:47;;;;;;;14.25;10.38;;;;;;;7.31;79.73;103221.28;4164040;28;20048;-61
2021/12/18 01:08:54;;;;;;;19.88;11.43;;;;;;;7.25;79.38;103226.03;4165187;28;20574;-60
2021/12/18 01:11:13;;;;;;;17.30;11.00;;;;;;;7.22;79.70;103215.47;4164792;28;20049;-62
2021/12/18 01:13:21;;;;;;;13.70;9.73;;;;;;;7.19;80.06;103214.34;4150212;28;20049;-63
2021/12/18 01:15:29;;;;;;;13.55;9.43;;;;;;;7.26;79.57;103229.53;4162477;28;20515;-57
2021/12/18 01:24:38;;;;;;;13.82;9.65;;;;;;;7.19;79.94;103214.34;4148505;28;20049;-60
2021/12/18 01:26:41;;;;;;;14.93;10.00;;;;;;;7.18;80.08;103216.00;4166118;28;20045;-59
2021/12/18 01:28:44;;;;;;;14.57;9.82;;;;;;;7.18;80.14;103215.13;4146614;28;20049;-57
2021/12/18 01:30:47;;;;;;;15.95;11.43;;;;;;;7.12;80.29;103207.81;4165102;28;20142;-58
2021/12/18 01:32:50;;;;;;;15.25;10.40;;;;;;;7.10;80.49;103206.81;4165790;28;20056;-60
2021/12/18 01:34:55;;;;;;;15.70;10.15;;;;;;;7.08;80.49;103206.72;4163223;28;20041;-60
2021/12/18 01:36:58;;;;;;;18.30;11.75;;;;;;;7.06;80.63;103207.38;4158321;28;20387;-60
2021/12/18 01:39:03;;;;;;;18.33;11.13;;;;;;;7.09;80.23;103207.59;4164983;28;20092;-60
2021/12/18 01:41:06;;;;;;;16.63;10.55;;;;;;;7.06;80.68;103207.38;4161611;28;20038;-61
2021/12/18 01:46:02;;;;;;;14.77;10.02;;;;;;;7.17;80.09;103206.47;4149246;28;20092;-58
2021/12/18 01:52:53;;;;;;;15.07;9.50;;;;;;;7.21;80.37;103205.88;4158262;28;20128;-58
2021/12/18 01:54:56;;;;;;;16.58;9.85;;;;;;;7.23;80.07;103206.00;4147047;28;20069;-60
2021/12/18 01:57:00;;;;;;;14.88;10.02;;;;;;;7.24;80.22;103207.81;4164069;28;20128;-57
2021/12/18 01:59:03;;;;;;;12.93;9.02;;;;;;;7.21;80.01;103202.41;4164297;28;20045;-63
2021/12/18 02:01:06;;;;;;;18.58;10.63;;;;;;;7.15;79.92;103201.19;4163094;28;20045;-60
2021/12/18 02:03:10;;;;;;;17.50;10.25;;;;;;;7.15;79.83;103201.19;4164162;28;20052;-59
2021/12/18 02:05:14;;;;;;;16.63;10.37;;;;;;;7.11;80.47;103196.59;4154478;28;20491;-60
2021/12/18 02:07:18;;;;;;;14.70;9.68;;;;;;;7.13;79.97;103189.81;4149362;28;20514;-62
2021/12/18 02:09:26;;;;;;;13.27;9.02;;;;;;;7.10;80.21;103188.72;4163109;28;20128;-61
2021/12/18 02:11:33;;;;;;;15.27;9.35;;;;;;;7.08;80.24;103190.28;4156287;28;20045;-63
2021/12/18 02:13:58;;;;;;;15.00;9.98;;;;;;;7.13;80.27;103186.34;4148030;28;20430;-60
2021/12/18 02:20:45;;;;;;;13.18;8.30;;;;;;;7.26;79.97;103189.03;4156395;28;20045;-59
2021/12/18 02:22:48;;;;;;;13.20;8.45;;;;;;;7.30;79.85;103195.31;4155507;28;20038;-57
2021/12/18 02:24:51;;;;;;;10.75;7.38;;;;;;;7.33;79.48;103198.13;4151314;28;20483;-59
2021/12/18 02:26:54;;;;;;;12.57;8.05;;;;;;;7.42;79.92;103195.31;4142615;28;20109;-59
2021/12/18 02:29:00;;;;;;;11.55;7.80;;;;;;;7.47;79.70;103189.63;4158770;28;20087;-61
2021/12/18 02:31:04;;;;;;;12.00;7.22;;;;;;;7.49;79.38;103193.25;4161980;28;20053;-63
2021/12/18 02:33:07;;;;;;;13.07;8.43;;;;;;;7.51;78.85;103199.44;4154205;28;20107;-62
2021/12/18 02:35:15;;;;;;;10.68;7.40;;;;;;;7.51;78.71;103195.94;4146770;28;20096;-59
2021/12/18 02:37:27;;;;;;;12.48;8.10;;;;;;;7.49;78.80;103198.44;4147920;28;20049;-61
2021/12/18 02:39:43;;;;;;;13.82;8.23;;;;;;;7.44;78.96;103191.13;4147276;28;20077;-59
2021/12/18 02:42:06;;;;;;;12.23;8.13;;;;;;;7.44;78.88;103188.53;4148736;28;20050;-61
2021/12/18 02:44:11;;;;;;;11.68;6.68;;;;;;;7.38;79.20;103188.13;4162147;28;20034;-59
2021/12/18 02:46:19;;;;;;;12.15;7.20;;;;;;;7.33;79.45;103174.84;4164293;28;20041;-59
2021/12/18 02:48:23;;;;;;;11.10;7.22;;;;;;;7.34;79.56;103185.31;4164351;28;20514;-59
2021/12/18 02:50:26;;;;;;;13.77;7.03;;;;;;;7.34;79.26;103180.13;4163429;28;20495;-61
2021/12/18 02:52:31;;;;;;;10.18;6.63;;;;;;;7.37;79.43;103183.72;4146630;28;20049;-61
2021/12/18 02:54:34;;;;;;;12.43;6.60;;;;;;;7.37;79.70;103181.13;4162981;28;20044;-60
2021/12/18 02:56:37;;;;;;;10.52;6.30;;;;;;;7.25;79.75;103181.16;4148364;28;20042;-61
2021/12/18 02:58:42;;;;;;;10.85;6.55;;;;;;;7.24;79.84;103182.84;4157523;28;20084;-61
2021/12/18 03:00:46;;;;;;;11.82;6.97;;;;;;;7.25;79.43;103181.16;4162259;28;20100;-63
2021/12/18 03:02:49;;;;;;;10.13;6.22;;;;;;;7.31;79.56;103179.88;4163354;28;20045;-58
2021/12/18 03:04:57;;;;;;;9.80;6.22;;;;;;;7.33;79.44;103172.25;4163057;28;20050;-60
2021/12/18 03:07:02;;;;;;;11.00;6.50;;;;;;;7.37;79.84;103169.06;4163724;28;20045;-63
2021/12/18 03:09:31;;;;;;;9.70;6.03;;;;;;;7.33;79.72;103172.25;4163159;28;20439;-61
2021/12/18 03:19:37;;;;;;;10.18;5.78;;;;;;;7.42;79.93;103167.72;4113119;28;20061;-59
2021/12/18 03:23:50;;;;;;;10.40;6.88;;;;;;;7.26;79.55;103165.75;4163959;28;20041;-61
2021/12/18 03:25:57;;;;;;;10.70;5.78;;;;;;;7.28;79.51;103174.50;4154356;28;20504;-60
2021/12/18 03:28:02;;;;;;;10.45;5.65;;;;;;;7.33;80.02;103165.38;4157957;28;20072;-59
2021/12/18 03:30:07;;;;;;;9.13;5.18;;;;;;;7.42;79.70;103164.25;4161236;28;20522;-61
2021/12/18 03:32:10;;;;;;;11.90;7.55;;;;;;;7.50;79.91;103173.44;4159967;28;20107;-62
2021/12/18 03:34:14;;;;;;;8.30;5.57;;;;;;;7.58;79.08;103169.72;4163478;28;20041;-62
2021/12/18 03:36:17;;;;;;;8.65;5.47;;;;;;;7.65;79.52;103176.19;4164133;28;20049;-62
2021/12/18 03:38:20;;;;;;;10.27;6.55;;;;;;;7.71;79.17;103165.38;4161898;28;20047;-62
2021/12/18 03:40:25;;;;;;;10.25;6.53;;;;;;;7.71;78.94;103157.59;4161080;28;20060;-61
2021/12/18 03:42:29;;;;;;;8.60;5.78;;;;;;;7.64;78.28;103159.78;4147284;28;20088;-59
2021/12/18 03:44:33;;;;;;;9.00;5.38;;;;;;;7.60;78.72;103160.34;4146936;28;20045;-63
2021/12/18 03:46:36;;;;;;;8.73;5.32;;;;;;;7.48;78.25;103164.69;4146968;28;20049;-60
2021/12/18 03:48:39;;;;;;;10.93;5.47;;;;;;;7.46;78.16;103168.81;4150220;28;20044;-61
2021/12/18 03:50:46;;;;;;;7.15;4.57;;;;;;;7.39;78.64;103167.50;4159388;23;20041;-55
2021/12/18 03:52:50;;;;;;;10.23;7.18;;;;;;;7.39;79.08;103170.09;4146836;28;20050;-53
2021/12/18 03:54:53;;;;;;;10.77;7.60;;;;;;;7.35;79.02;103168.06;4146794;28;20046;-55
2021/12/18 03:56:56;;;;;;;9.82;7.15;;;;;;;7.38;79.46;103165.69;4146302;28;20091;-56
2021/12/18 03:59:00;;;;;;;10.23;6.53;;;;;;;7.34;79.50;103169.78;4142463;28;20042;-56
2021/12/18 04:01:03;;;;;;;10.18;6.20;;;;;;;7.28;79.24;103169.31;4130694;28;20049;-58
2021/12/18 04:03:06;;;;;;;9.65;6.30;;;;;;;7.18;79.32;103173.72;4130104;28;20054;-57
2021/12/18 04:05:10;;;;;;;11.07;6.90;;;;;;;7.16;79.58;103171.03;4113787;28;20049;-59
2021/12/18 04:07:14;;;;;;;9.98;6.72;;;;;;;7.09;79.56;103171.38;4130302;28;20436;-58
2021/12/18 04:09:17;;;;;;;13.35;6.97;;;;;;;7.02;80.27;103162.28;4129081;28;20042;-57
2021/12/18 04:11:21;;;;;;;13.38;6.82;;;;;;;7.03;80.15;103163.19;4132341;28;20475;-54
2021/12/18 04:13:24;;;;;;;9.70;5.28;;;;;;;6.98;79.63;103168.91;4133740;28;20042;-56
2021/12/18 04:15:29;;;;;;;4.88;3.50;;;;;;;6.91;78.81;103163.19;4133483;28;20691;-57
2021/12/18 04:17:32;;;;;;;6.45;3.60;;;;;;;6.86;78.97;103167.13;4126817;28;20520;-56
2021/12/18 04:19:36;;;;;;;3.80;2.90;;;;;;;6.78;78.82;103169.16;4133011;28;20050;-54
2021/12/18 04:21:39;;;;;;;4.82;2.90;;;;;;;6.69;78.50;103160.69;4116462;28;20062;-56
2021/12/18 04:23:42;;;;;;;3.25;2.38;;;;;;;6.73;78.96;103175.66;4133073;28;20042;-56
2021/12/18 04:25:45;;;;;;;4.30;2.60;;;;;;;6.71;79.11;103170.38;4133308;28;20049;-56
2021/12/18 04:27:49;;;;;;;4.85;2.75;;;;;;;6.79;78.74;103165.75;4133344;28;20042;-56
2021/12/18 04:29:51;;;;;;;3.88;2.60;;;;;;;6.80;78.81;103159.81;4132938;28;20523;-59
2021/12/18 04:31:56;;;;;;;3.90;2.90;;;;;;;6.70;79.08;103166.03;4147124;28;20046;-55
2021/12/18 04:33:59;;;;;;;;;;;;;;;6.55;79.28;103160.59;4149685;28;20510;-54
2021/12/18 04:36:02;;;;;;;5.97;3.85;;;;;;;6.58;79.63;103163.41;4149615;28;19922;-54
2021/12/18 04:38:05;;;;;;;6.30;4.47;;;;;;;6.60;79.86;103164.44;4148505;28;20097;-56
2021/12/18 04:40:10;;;;;;;6.18;4.53;;;;;;;6.64;79.81;103166.47;4145910;28;20045;-53
2021/12/18 04:42:13;;;;;;;7.05;5.18;;;;;;;6.72;79.99;103163.53;4132398;28;20034;-56
2021/12/18 04:44:16;;;;;;;8.98;6.22;;;;;;;6.69;79.65;103159.03;4138859;28;20069;-54
2021/12/18 04:46:19;;;;;;;7.90;5.90;;;;;;;6.66;80.14;103157.91;4149120;28;20042;-54
2021/12/18 04:48:24;;;;;;;8.18;6.10;;;;;;;6.68;80.12;103157.22;4149291;28;20046;-53
2021/12/18 04:50:27;;;;;;;9.73;5.65;;;;;;;6.61;80.25;103163.66;4148986;28;20077;-53
2021/12/18 04:52:30;;;;;;;7.57;5.53;;;;;;;6.62;79.80;103161.97;4147744;28;20042;-57
2021/12/18 04:54:33;;;;;;;7.40;5.35;;;;;;;6.64;80.40;103165.53;4136894;28;20037;-56
2021/12/18 04:56:36;;;;;;;6.90;5.00;;;;;;;6.70;79.93;103159.94;4120173;28;20215;-53
2021/12/18 04:58:39;;;;;;;7.20;5.45;;;;;;;6.72;79.73;103161.84;4146160;28;20065;-55
2021/12/18 05:00:46;;;;;;;7.43;5.63;;;;;;;6.77;79.34;103168.25;4114515;28;20504;-56
2021/12/18 05:02:51;;;;;;;7.90;5.70;;;;;;;6.71;79.65;103166.91;4132888;28;20735;-57
2021/12/18 05:04:56;;;;;;;;;;;;;;;6.52;79.44;103160.38;4132329;28;20039;-55
2021/12/18 05:06:59;;;;;;;7.18;4.93;;;;;;;6.57;79.54;103164.19;4132715;28;19921;-57
2021/12/18 05:09:02;;;;;;;6.68;4.65;;;;;;;6.62;79.56;103160.25;4131983;28;20042;-57
2021/12/18 05:11:05;;;;;;;8.98;5.00;;;;;;;6.64;79.84;103168.13;4131973;28;20074;-58
2021/12/18 05:13:08;;;;;;;6.38;4.28;;;;;;;6.64;79.79;103170.72;4134890;28;20039;-55
2021/12/18 05:15:11;;;;;;;4.93;3.25;;;;;;;6.65;79.53;103159.59;4133017;28;20038;-61
2021/12/18 05:17:14;;;;;;;5.30;3.28;;;;;;;6.54;79.69;103171.72;4130658;28;20140;-58
2021/12/18 05:19:17;;;;;;;4.28;2.90;;;;;;;6.51;80.12;103168.88;4132223;28;20050;-58
2021/12/18 05:21:21;;;;;;;4.65;2.78;;;;;;;6.51;79.86;103166.31;4129501;28;20039;-56
2021/12/18 05:23:24;;;;;;;4.75;2.40;;;;;;;6.49;80.27;103162.72;4132448;28;20038;-58
2021/12/18 05:25:27;;;;;;;3.78;2.53;;;;;;;6.47;80.35;103167.78;4132426;28;20078;-58
2021/12/18 05:27:30;;;;;;;3.60;2.47;;;;;;;6.44;80.44;103158.91;4132568;28;20043;-59
2021/12/18 05:29:33;;;;;;;4.70;2.50;;;;;;;6.33;79.91;103159.78;4131679;28;20074;-57
2021/12/18 05:31:36;;;;;;;3.80;2.42;;;;;;;6.30;80.15;103163.03;4137058;28;20046;-53
2021/12/18 05:33:39;;;;;;;3.45;2.20;;;;;;;6.27;80.36;103174.03;4115135;28;20459;-57
2021/12/18 05:35:42;;;;;;;4.35;2.40;;;;;;;6.29;80.51;103182.81;4132604;28;20035;-56
2021/12/18 05:37:50;;;;;;;4.10;2.70;;;;;;;6.22;80.57;103177.97;4132292;28;20566;-56
2021/12/18 05:39:53;;;;;;;4.07;2.65;;;;;;;6.25;80.34;103175.59;4131967;28;20516;-56
2021/12/18 05:41:57;;;;;;;4.38;2.42;;;;;;;6.21;80.63;103172.69;4131395;28;20042;-55
2021/12/18 05:44:00;;;;;;;4.45;2.60;;;;;;;6.26;80.31;103166.16;4133404;28;20057;-57
2021/12/18 05:46:03;;;;;;;3.88;2.65;;;;;;;6.24;80.32;103167.75;4127030;28;20483;-56
2021/12/18 05:48:06;;;;;;;4.70;2.70;;;;;;;6.24;80.69;103166.03;4134764;28;20037;-60
2021/12/18 05:50:11;;;;;;;4.55;2.83;;;;;;;6.24;80.50;103172.91;4130026;28;20046;-57
2021/12/18 05:52:15;;;;;;;6.65;3.70;;;;;;;6.26;80.71;103168.75;4139730;28;20422;-58
2021/12/18 05:54:19;;;;;;;5.87;3.57;;;;;;;6.18;80.85;103175.03;4131831;28;20035;-58
2021/12/18 05:56:22;;;;;;;6.72;3.20;;;;;;;6.15;81.33;103172.19;4132237;28;20042;-57
2021/12/18 05:58:25;;;;;;;5.43;3.10;;;;;;;6.14;81.54;103166.13;4131841;28;20046;-56
2021/12/18 06:00:28;;;;;;;6.60;4.05;;;;;;;6.14;81.50;103165.25;4131057;28;20078;-57
2021/12/18 06:02:31;;;;;;;6.88;3.47;;;;;;;6.07;82.12;103167.34;4131563;28;20394;-53
2021/12/18 06:04:35;;;;;;;7.07;4.15;;;;;;;6.13;81.80;103161.75;4132629;28;20042;-56
2021/12/18 06:06:38;;;;;;;6.27;3.47;;;;;;;6.11;81.68;103161.63;4127968;28;20046;-57
2021/12/18 06:08:42;;;;;;;6.80;3.75;;;;;;;6.14;81.65;103163.56;4137491;28;20301;-55
2021/12/18 06:10:46;;;;;;;6.27;3.37;;;;;;;6.18;81.49;103162.13;4130736;28;20042;-56
2021/12/18 06:12:49;;;;;;;7.00;3.30;;;;;;;6.20;81.17;103163.13;4131847;28;20049;-57
2021/12/18 06:14:53;;;;;;;6.03;3.38;;;;;;;6.18;81.47;103162.13;4132110;28;20038;-56
2021/12/18 06:16:56;;;;;;;6.57;3.47;;;;;;;6.18;81.34;103163.00;4131662;28;20047;-58
2021/12/18 06:18:59;;;;;;;7.18;3.67;;;;;;;6.21;81.56;103158.06;4143630;28;20072;-57
2021/12/18 06:21:03;;;;;;;5.88;3.40;;;;;;;6.20;81.39;103156.25;4132553;28;20034;-59
2021/12/18 06:23:06;;;;;;;7.10;3.35;;;;;;;6.20;81.90;103147.63;4131309;28;20061;-57
2021/12/18 06:25:09;;;;;;;5.13;3.25;;;;;;;6.18;81.67;103147.50;4131638;28;20084;-54
2021/12/18 06:27:14;;;;;;;7.35;3.78;;;;;;;6.21;81.55;103147.75;4131978;28;20062;-58
2021/12/18 06:29:17;;;;;;;5.63;3.13;;;;;;;6.23;81.50;103146.16;4130223;28;20057;-57
2021/12/18 06:31:20;;;;;;;5.03;3.45;;;;;;;6.32;81.38;103142.47;4144253;28;20034;-51
2021/12/18 06:33:23;;;;;;;4.93;3.28;;;;;;;6.38;81.14;103145.50;4142804;28;20038;-59
2021/12/18 06:35:26;;;;;;;5.40;3.47;;;;;;;6.41;80.99;103143.16;4131532;28;20118;-58
2021/12/18 06:37:29;;;;;;;4.55;2.65;;;;;;;6.41;80.91;103145.75;4130556;28;20042;-55
2021/12/18 06:39:32;;;;;;;5.05;2.88;;;;;;;6.41;81.14;103135.41;4129932;28;20085;-51
2021/12/18 06:41:35;;;;;;;5.05;3.15;;;;;;;6.42;80.74;103137.22;4126937;28;20470;-57
2021/12/18 06:43:39;;;;;;;7.15;2.97;;;;;;;6.39;81.10;103143.03;4130401;28;20034;-56
2021/12/18 06:45:43;;;;;;;6.47;3.08;;;;;;;6.41;81.23;103143.16;4130283;28;20066;-54
2021/12/18 06:47:46;;;;;;;4.45;2.65;;;;;;;6.44;80.86;103146.88;4130009;28;20085;-59
2021/12/18 06:49:49;;;;;;;3.83;2.50;;;;;;;6.49;81.10;103142.03;4131903;28;20050;-57
2021/12/18 06:51:52;;;;;;;5.03;2.30;;;;;;;6.56;80.70;103153.75;4131333;28;20065;-58
2021/12/18 06:53:55;;;;;;;5.03;2.40;;;;;;;6.57;80.60;103153.88;4130650;28;20046;-53
2021/12/18 06:55:58;;;;;;;4.00;2.40;;;;;;;6.58;80.80;103145.31;4137395;28;20402;-55
2021/12/18 06:58:02;;;;;;;5.85;2.40;;;;;;;6.64;80.65;103142.28;4117935;28;20053;-59
2021/12/18 07:00:10;;;;;;;4.90;3.03;;;;;;;6.56;81.06;103143.41;4129596;28;20042;-57
2021/12/18 07:02:13;;;;;;;4.55;2.50;;;;;;;6.55;81.21;103137.31;4126419;28;20601;-54
2021/12/18 07:04:16;;;;;;;5.05;2.67;;;;;;;6.53;81.33;103145.78;4130590;28;20125;-55
2021/12/18 07:06:19;;;;;;;6.10;2.80;;;;;;;6.57;81.01;103143.53;4130085;28;20052;-59
2021/12/18 07:08:23;;;;;;;5.93;2.90;;;;;;;6.59;80.97;103141.94;4130323;28;20046;-54
2021/12/18 07:10:26;;;;;;;6.70;3.30;;;;;;;6.56;81.00;103146.88;4129395;28;20051;-56
2021/12/18 07:12:29;;;;;;;6.13;2.88;;;;;;;6.57;81.75;103147.78;4130013;28;20049;-54
2021/12/18 07:14:32;;;;;;;7.28;2.88;;;;;;;6.50;81.47;103143.84;4129973;28;20097;-57
2021/12/18 07:16:36;;;;;;;6.47;3.13;;;;;;;6.56;81.31;103141.72;4129911;28;20064;-55
2021/12/18 07:18:39;;;;;;;4.45;2.50;;;;;;;6.54;81.60;103132.97;4130579;28;20046;-55
2021/12/18 07:20:42;;;;;;;5.00;2.45;;;;;;;6.61;81.03;103137.81;4129376;28;20034;-54
2021/12/18 07:22:45;;;;;;;6.03;3.47;;;;;;;6.60;81.51;103142.84;4126782;28;20377;-53
2021/12/18 07:24:48;;;;;;;6.53;2.60;;;;;;;6.59;81.24;103135.88;4132747;28;20045;-52
2021/12/18 07:26:51;;;;;;;5.55;2.50;;;;;;;6.57;81.90;103135.78;4122850;28;20447;-55
2021/12/18 07:28:54;;;;;;;5.68;2.63;;;;;;;6.56;81.48;103133.06;4112457;28;20050;-57
2021/12/18 07:30:58;;;;;;;7.82;2.90;;;;;;;6.51;81.47;103137.00;4112111;28;20102;-54
2021/12/18 07:33:03;;;;;;;4.68;2.33;;;;;;;6.51;81.45;103137.00;4129780;28;20506;-52
2021/12/18 07:35:07;;;;;;;5.45;2.45;;;;;;;6.53;81.65;103141.50;4130266;28;20046;-53
2021/12/18 07:37:10;;;;;;;4.28;2.78;;;;;;;6.56;81.59;103120.16;4129444;28;20038;-57
2021/12/18 07:39:13;;;;;;;4.25;2.08;;;;;;;6.58;81.53;103127.22;4129359;28;20042;-55
2021/12/18 07:41:16;;;;;;;5.63;2.60;;;;;;;6.59;81.45;103130.72;4130048;28;20043;-58
2021/12/18 07:43:19;;;;;;;5.07;2.47;;;;;;;6.59;81.54;103131.59;4130158;28;20042;-55
2021/12/18 07:45:22;;;;;;;4.47;2.22;;;;;;;6.62;80.90;103126.66;4131291;28;20427;-57
2021/12/18 07:47:25;;;;;;;3.83;2.08;;;;;;;6.66;81.32;103132.03;4132251;28;20050;-56
2021/12/18 07:49:30;;;;;;;3.33;2.08;;;;;;;6.62;80.77;103131.81;4132928;28;20395;-57
2021/12/18 07:51:33;;;;;;;5.28;2.22;;;;;;;6.62;80.74;103137.00;4132993;28;20148;-56
2021/12/18 07:53:36;;;;;;;4.93;2.38;;;;;;;6.59;80.82;103130.72;4133579;28;20049;-53
2021/12/18 07:55:39;;;;;;;4.32;2.25;;;;;;;6.64;81.11;103135.44;4116081;28;20057;-55
2021/12/18 07:57:42;;;;;;;5.80;2.88;;;;;;;6.70;80.76;103124.66;4132671;28;20452;-56
2021/12/18 07:59:47;;;;;;;3.00;2.00;;;;;;;6.67;80.99;103123.50;4132818;28;20411;-56
2021/12/18 08:01:50;;;;;;;5.68;2.75;;;;;;;6.69;80.63;103127.09;4132370;28;20054;-55
2021/12/18 08:03:53;;;;;;;6.82;2.42;;;;;;;6.67;80.91;103123.50;4132531;28;20557;-56
2021/12/18 08:05:59;;;;;;;5.28;2.42;;;;;;;6.73;80.44;103122.28;4132489;28;20074;-60
2021/12/18 08:08:02;;;;;;;4.15;2.50;;;;;;;6.75;80.64;103123.28;4133230;28;20049;-56
2021/12/18 08:10:06;;;;;;;3.75;2.33;;;;;;;6.75;80.55;103125.88;4132610;28;20089;-49
2021/12/18 08:12:10;;;;;;;5.50;2.43;;;;;;;7.09;81.29;103119.66;4132451;28;20053;-57
2021/12/18 08:14:13;;;;;;;3.83;1.90;;;;;;;7.12;80.14;103119.88;4132745;28;20293;-58
2021/12/18 08:16:16;;;;;;;5.18;2.72;;;;;;;7.08;79.70;103123.00;4130728;28;20046;-53
2021/12/18 08:18:19;;;;;;;5.38;2.58;;;;;;;7.43;79.85;103116.84;4134591;28;20100;-53
2021/12/18 08:20:22;;;;;;;3.00;1.88;;;;;;;7.53;78.11;103108.94;4131721;28;20077;-53
2021/12/18 08:22:27;;;;;;;4.07;2.28;;;;;;;7.41;77.40;103118.44;4113835;28;20133;-56
2021/12/18 08:24:30;;;;;;;3.97;2.25;;;;;;;7.25;77.91;103112.19;4131875;28;20479;-55
2021/12/18 08:26:33;;;;;;;4.25;2.38;;;;;;;7.21;78.40;103115.34;4132168;28;20093;-53
2021/12/18 08:28:36;;;;;;;3.33;1.98;;;;;;;7.18;78.58;103119.41;4132067;28;20404;-57
2021/12/18 08:30:40;;;;;;;3.47;1.98;;;;;;;7.10;78.33;103108.53;4130234;28;20163;-56
2021/12/18 08:32:43;;;;;;;4.15;2.08;;;;;;;7.02;78.57;103107.06;4131169;28;20101;-54
2021/12/18 08:34:46;;;;;;;3.65;2.20;;;;;;;6.96;78.60;103111.00;4131247;28;20050;-55
2021/12/18 08:36:49;;;;;;;2.55;1.95;;;;;;;6.98;79.36;103111.13;4117948;28;20073;-54
2021/12/18 08:38:54;;;;;;;3.97;2.10;;;;;;;7.03;78.91;103114.94;4132666;28;20081;-57
2021/12/18 08:40:57;;;;;;;2.15;1.75;;;;;;;7.01;79.12;103116.53;4132741;28;20038;-56
2021/12/18 08:43:00;;;;;;;2.30;1.50;;;;;;;7.05;78.88;103107.28;4132503;28;20411;-58
2021/12/18 08:45:03;;;;;;;2.42;1.58;;;;;;;7.11;78.51;103098.28;4133121;28;20104;-56
2021/12/18 08:47:06;;;;;;;2.72;1.52;;;;;;;7.12;78.56;103099.16;4132238;28;20092;-55
2021/12/18 08:49:09;;;;;;;2.35;1.70;;;;;;;7.15;78.72;103101.97;4120052;28;20557;-56
2021/12/18 08:51:13;;;;;;;2.15;1.70;;;;;;;7.09;78.31;103107.59;4132798;28;20050;-54
2021/12/18 08:53:15;;;;;;;4.93;1.67;;;;;;;7.11;78.83;103107.72;4132656;28;20042;-56
2021/12/18 08:55:21;;;;;;;2.78;1.73;;;;;;;7.11;78.63;103103.47;4133041;28;20047;-52
2021/12/18 08:57:24;;;;;;;3.67;1.90;;;;;;;7.20;78.52;103112.63;4133235;28;20108;-57
2021/12/18 08:59:28;;;;;;;3.58;1.50;;;;;;;7.28;78.31;103120.16;4132238;28;20047;-58
2021/12/18 09:01:31;;;;;;;2.47;1.52;;;;;;;7.28;77.89;103117.56;4132493;28;20077;-56
2021/12/18 09:03:34;;;;;;;4.35;1.60;;;;;;;7.31;77.95;103112.59;4132545;28;20054;-55
2021/12/18 09:05:37;;;;;;;4.38;1.63;;;;;;;7.40;77.05;103114.06;4132814;28;20495;-56
2021/12/18 09:07:41;;;;;;;1.67;1.40;;;;;;;7.36;77.37;103119.78;4132364;28;20084;-54
2021/12/18 09:09:44;;;;;;;3.03;1.88;;;;;;;7.38;76.94;103123.41;4136618;28;20050;-55
2021/12/18 09:11:48;;;;;;;2.45;1.20;;;;;;;7.28;77.54;103111.50;4132349;28;20042;-53
2021/12/18 09:13:52;;;;;;;2.65;1.45;;;;;;;7.34;77.14;103106.75;4132553;28;20050;-55
2021/12/18 09:15:55;;;;;;;2.25;1.60;;;;;;;7.40;77.08;103108.88;4132533;28;20046;-53
2021/12/18 09:17:58;;;;;;;2.25;1.48;;;;;;;7.48;77.41;103099.97;4131975;28;20038;-58
2021/12/18 09:20:01;;;;;;;3.00;1.58;;;;;;;7.48;77.01;103098.25;4132035;28;20107;-54
2021/12/18 09:22:06;;;;;;;3.38;1.67;;;;;;;7.46;77.07;103102.44;4126458;28;20046;-52
2021/12/18 09:24:10;;;;;;;2.80;1.40;;;;;;;7.45;76.98;103099.75;4130420;28;20065;-56
2021/12/18 09:26:13;;;;;;;2.80;1.40;;;;;;;7.42;76.82;103096.97;4131043;28;20042;-59
2021/12/18 09:28:17;;;;;;;1.83;1.27;;;;;;;7.40;77.28;103095.94;4132775;28;20042;-54
2021/12/18 09:30:20;;;;;;;2.08;1.30;;;;;;;7.42;76.58;103094.38;4131472;28;20454;-56
2021/12/18 09:32:23;;;;;;;2.42;1.40;;;;;;;7.34;77.04;103092.16;4131786;28;20046;-58
2021/12/18 09:34:27;;;;;;;1.20;1.10;;;;;;;7.37;76.43;103083.66;4129552;28;20057;-54
2021/12/18 09:36:31;;;;;;;2.53;1.35;;;;;;;7.46;76.88;103080.81;4130514;28;20562;-56
2021/12/18 09:38:37;;;;;;;2.67;1.42;;;;;;;7.48;76.53;103084.44;4131806;28;20369;-51
2021/12/18 09:40:40;;;;;;;1.83;1.40;;;;;;;7.42;76.54;103078.84;4131229;28;20474;-55
2021/12/18 09:42:44;;;;;;;2.15;1.42;;;;;;;7.39;75.94;103084.69;4131350;28;20042;-58
2021/12/18 09:44:50;;;;;;;2.22;1.30;;;;;;;7.39;76.81;103084.69;4131779;28;20042;-55
2021/12/18 09:46:54;;;;;;;1.90;1.40;;;;;;;7.47;76.14;103077.47;4131260;28;20495;-59
2021/12/18 09:48:57;;;;;;;4.07;1.40;;;;;;;7.45;75.78;103072.19;4125796;28;20092;-55
2021/12/18 09:51:07;;;;;;;1.27;1.10;;;;;;;7.49;76.06;103070.69;4133075;28;20042;-54
2021/12/18 09:53:10;;;;;;;1.92;1.42;;;;;;;7.51;76.01;103063.94;4155189;23;20091;-60
2021/12/18 09:55:13;;;;;;;2.35;1.60;;;;;;;7.64;75.69;103056.22;4175437;28;20493;-60
2021/12/18 09:57:16;;;;;;;3.78;1.45;;;;;;;7.67;75.53;103045.19;4177924;28;20555;-60
2021/12/18 09:59:20;;;;;;;1.75;1.30;;;;;;;7.67;75.32;103050.34;4153451;28;20058;-59
2021/12/18 10:01:24;;;;;;;2.40;1.52;;;;;;;7.66;75.58;103054.63;4175134;28;20087;-60
2021/12/18 10:03:43;;;;;;;1.95;1.42;;;;;;;7.61;75.60;103044.75;4174516;28;20139;-59
2021/12/18 10:05:46;;;;;;;2.10;1.40;;;;;;;7.53;75.87;103041.63;4171556;28;20048;-60
2021/12/18 10:08:14;;;;;;;2.80;1.50;;;;;;;7.60;75.98;103040.38;4173180;28;20033;-58
2021/12/18 10:10:17;;;;;;;1.48;1.38;;;;;;;7.64;76.02;103032.03;4173287;28;20037;-59
2021/12/18 10:12:23;;;;;;;2.42;1.65;;;;;;;7.66;75.77;103026.13;4166496;28;20053;-57